Midlothian, TX

5:43 AM CDT on April 28, 2015 (GMT -0500)
Dover Heights | | Change Station
CLOSE
Current Station
Personal Weather Station
Location: Mansfield, TX
Elevation: 679 ft
Nearby Weather Stations

Elev 679 ft 32.60 °N, 97.14 °W | Updated 24 seconds ago

Overcast
Overcast
54.3 °F
Feels Like 54.3 °F
N
5.0
Wind Variable Wind from WNW
Gusts 6.0 mph

Today
High -- | Low -- °F
--% Chance of Precip.
Yesterday
High -- | Low -- °F
Precip. -- in
6:44 AM 8:07 PM
Waxing Gibbous, 72% visible
Pressure 29.91 in
Visibility 10.0 miles
Clouds Overcast 2500 ft
Dew Point 49 °F
Humidity 83%
Rainfall 0.00 in
Snow Depth Not available.
UV 0 out of 12
Pollen 3.70 out of 12
Air Quality Not available.
Flu Activity Local Activity
METAR KGKY 280953Z AUTO 02008KT 10SM OVC025 13/08 A2993 RMK AO2 SLP129 T01330078

More Conditions Fewer Conditions

Pressure 29.91 in
Visibility 10.0 miles
Clouds Overcast 2500 ft
Dew Point 49 °F
Humidity 83%
Rainfall 0.00 in
Snow Depth Not available.
UV 0 out of 12
Pollen 3.70 out of 12
Air Quality Not available.
Flu Activity Local Activity
METAR KGKY 280953Z AUTO 02008KT 10SM OVC025 13/08 A2993 RMK AO2 SLP129 T01330078

More Conditions Fewer Conditions

Nowcast | as of 4:42 am CDT on April 28, 2015

Light to moderate rain is occurring west of Interstate 35/35w early this morning. This rain activity is spreading east as an upper level low approaches the region. Rainfall totals through daybreak will average up to a quarter of an inch. A few lightning strikes are possible. Otherwise...it will continue to be cloudy and cool across the region with breezy northeast winds and temperatures in the 50s and lower 60s.

×

10-Day Weather Forecast

Almanac

Astronomy

Apr. 28, 2015 Rise Set
Actual Time
Civil Twilight
Nautical Twilight
Astronomical Twilight
Moon
Length of Visible Light
Length of Day
Tomorrow will be .
, % of the Moon is Illuminated

Today's Extremes

State Highs State Lows

Community

WunderPhotos

Upload Photos

1,817,603 photos uploaded!

WunderBlogs® & News

Nearby

Air Quality

  Air Quality AQ Index Pollutant
Not available.

Snow Depth

Station Depth Elevation

Earthquake Activity

City Distance Mag. Time & Date
Minimum magnitude displayed is 2.5.

Coastal Water Temperatures

Place Temperature

Stations

Nearby Weather Stations

Station Location Temp. Windchill Dew Point Humidity Wind Precip. Elev Updated Type